TAM2797 SBRJ-SBBR
Flight info
| Callsign | TAM2797 |
|---|---|
| Flight time | N/A |
| Altitude | 36000 |
| Route | MUDKA UM409 ISIPI |
| Aircraft | A320/M-SDE3FGHIRWY/LB1 |
Departure
| Time | 2026-05-07 23:30 |
|---|---|
| Airport | Santos Dumont Airport (SBRJ) |
Arrival
| Time | N/A |
|---|---|
| Airport | Presidente Juscelino Kubitschek International Airport (SBBR) |
| Time | Latitude | Longitude | Altitude | Speed | Heading |
|---|---|---|---|---|---|
| 2026-05-07 23:10 | -22.91169 | -43.16586 | 22 ft | 0 kts | 266° |
| 2026-05-07 23:19 | -22.91168 | -43.16579 | 22 ft | 2 kts | 268° |
| 2026-05-07 23:20 | -22.91169 | -43.16557 | 23 ft | 3 kts | 277° |
| 2026-05-07 23:20 | -22.91173 | -43.16536 | 23 ft | 3 kts | 295° |
| 2026-05-07 23:20 | -22.91182 | -43.16520 | 27 ft | 3 kts | 327° |
| 2026-05-07 23:20 | -22.91194 | -43.16514 | 22 ft | 1 kts | 356° |
| 2026-05-07 23:21 | -22.91199 | -43.16514 | 22 ft | 0 kts | 356° |
| 2026-05-07 23:25 | -22.91177 | -43.16515 | 22 ft | 10 kts | 358° |
| 2026-05-07 23:26 | -22.91095 | -43.16530 | 23 ft | 13 kts | 344° |
| 2026-05-07 23:26 | -22.90998 | -43.16540 | 24 ft | 15 kts | 356° |
| 2026-05-07 23:26 | -22.90884 | -43.16548 | 22 ft | 17 kts | 355° |
| 2026-05-07 23:26 | -22.90761 | -43.16542 | 25 ft | 18 kts | 352° |
| 2026-05-07 23:27 | -22.90507 | -43.16541 | 22 ft | 14 kts | 54° |
| 2026-05-07 23:27 | -22.90497 | -43.16492 | 22 ft | 0 kts | 85° |
| 2026-05-07 23:28 | -22.90496 | -43.16469 | 22 ft | 7 kts | 87° |
| 2026-05-07 23:28 | -22.90492 | -43.16411 | 24 ft | 8 kts | 82° |
| 2026-05-07 23:29 | -22.90472 | -43.16355 | 24 ft | 9 kts | 56° |
| 2026-05-07 23:29 | -22.90505 | -43.16317 | 24 ft | 14 kts | 176° |
| 2026-05-07 23:29 | -22.90888 | -43.16292 | 24 ft | 97 kts | 176° |
| 2026-05-07 23:29 | -22.91792 | -43.16227 | 47 ft | 157 kts | 174° |
| 2026-05-07 23:30 | -22.92914 | -43.16092 | 608 ft | 165 kts | 163° |
| 2026-05-07 23:30 | -22.93886 | -43.15462 | 1290 ft | 162 kts | 125° |
| 2026-05-07 23:30 | -22.94502 | -43.14427 | 1794 ft | 167 kts | 115° |
| 2026-05-07 23:30 | -22.95198 | -43.13334 | 1903 ft | 192 kts | 133° |
| 2026-05-07 23:31 | -22.96259 | -43.12323 | 2097 ft | 214 kts | 136° |
| 2026-05-07 23:31 | -22.97446 | -43.11203 | 2259 ft | 238 kts | 136° |